sensor_id;sensor_type;location;lat;lon;timestamp;temperature;humidity
13572;DHT22;6857;53.484;10.216;2024-01-30T00:01:11;4.80;99.90
13572;DHT22;6857;53.484;10.216;2024-01-30T00:03:37;4.80;99.90
13572;DHT22;6857;53.484;10.216;2024-01-30T00:06:05;4.90;99.90
13572;DHT22;6857;53.484;10.216;2024-01-30T00:08:31;4.90;99.90
13572;DHT22;6857;53.484;10.216;2024-01-30T00:10:57;4.90;99.90
13572;DHT22;6857;53.484;10.216;2024-01-30T00:13:22;4.90;99.90
13572;DHT22;6857;53.484;10.216;2024-01-30T00:15:48;4.90;99.90
13572;DHT22;6857;53.484;10.216;2024-01-30T00:18:14;4.90;99.90
13572;DHT22;6857;53.484;10.216;2024-01-30T00:20:39;4.90;99.90
13572;DHT22;6857;53.484;10.216;2024-01-30T00:23:05;4.90;99.90
13572;DHT22;6857;53.484;10.216;2024-01-30T00:25:30;4.80;99.90
13572;DHT22;6857;53.484;10.216;2024-01-30T00:27:56;4.90;99.90
13572;DHT22;6857;53.484;10.216;2024-01-30T00:30:22;4.80;99.90
13572;DHT22;6857;53.484;10.216;2024-01-30T00:32:47;4.90;99.90
13572;DHT22;6857;53.484;10.216;2024-01-30T00:35:13;4.80;99.90
13572;DHT22;6857;53.484;10.216;2024-01-30T00:37:38;4.80;99.90
13572;DHT22;6857;53.484;10.216;2024-01-30T00:40:04;4.80;99.90
13572;DHT22;6857;53.484;10.216;2024-01-30T00:42:31;4.80;99.90
13572;DHT22;6857;53.484;10.216;2024-01-30T00:44:57;4.70;99.90
13572;DHT22;6857;53.484;10.216;2024-01-30T00:47:22;4.70;99.90
13572;DHT22;6857;53.484;10.216;2024-01-30T00:49:48;4.60;99.90
13572;DHT22;6857;53.484;10.216;2024-01-30T00:52:13;4.60;99.90
13572;DHT22;6857;53.484;10.216;2024-01-30T00:54:39;4.60;99.90
13572;DHT22;6857;53.484;10.216;2024-01-30T00:57:05;4.50;99.90
13572;DHT22;6857;53.484;10.216;2024-01-30T00:59:30;4.50;99.90
13572;DHT22;6857;53.484;10.216;2024-01-30T01:01:56;4.50;99.90
13572;DHT22;6857;53.484;10.216;2024-01-30T01:04:21;4.40;99.90
13572;DHT22;6857;53.484;10.216;2024-01-30T01:06:47;4.40;99.90
13572;DHT22;6857;53.484;10.216;2024-01-30T01:09:13;4.30;99.90
13572;DHT22;6857;53.484;10.216;2024-01-30T01:11:38;4.30;99.90
13572;DHT22;6857;53.484;10.216;2024-01-30T01:14:04;4.30;99.90
13572;DHT22;6857;53.484;10.216;2024-01-30T01:16:30;4.30;99.90
13572;DHT22;6857;53.484;10.216;2024-01-30T01:18:56;4.20;99.90
13572;DHT22;6857;53.484;10.216;2024-01-30T01:21:21;4.10;99.90
13572;DHT22;6857;53.484;10.216;2024-01-30T01:23:48;4.10;99.90
13572;DHT22;6857;53.484;10.216;2024-01-30T01:26:13;4.10;99.90
13572;DHT22;6857;53.484;10.216;2024-01-30T01:28:40;4.00;99.90
13572;DHT22;6857;53.484;10.216;2024-01-30T01:31:06;4.00;99.90
13572;DHT22;6857;53.484;10.216;2024-01-30T01:33:32;4.00;99.90
13572;DHT22;6857;53.484;10.216;2024-01-30T01:35:59;4.00;99.90
13572;DHT22;6857;53.484;10.216;2024-01-30T01:38:25;4.10;99.90
13572;DHT22;6857;53.484;10.216;2024-01-30T01:40:50;4.10;99.90
13572;DHT22;6857;53.484;10.216;2024-01-30T01:43:16;4.10;99.90
13572;DHT22;6857;53.484;10.216;2024-01-30T01:45:42;4.10;99.90
13572;DHT22;6857;53.484;10.216;2024-01-30T01:48:08;4.10;99.90
13572;DHT22;6857;53.484;10.216;2024-01-30T01:50:34;4.20;99.90
13572;DHT22;6857;53.484;10.216;2024-01-30T01:53:01;4.20;99.90
13572;DHT22;6857;53.484;10.216;2024-01-30T01:55:29;4.20;99.90
13572;DHT22;6857;53.484;10.216;2024-01-30T01:57:56;4.30;99.90
13572;DHT22;6857;53.484;10.216;2024-01-30T02:00:22;4.20;99.90
13572;DHT22;6857;53.484;10.216;2024-01-30T02:02:49;4.30;99.90
13572;DHT22;6857;53.484;10.216;2024-01-30T02:05:16;4.30;99.90
13572;DHT22;6857;53.484;10.216;2024-01-30T02:07:42;4.30;99.90
13572;DHT22;6857;53.484;10.216;2024-01-30T02:10:08;4.30;99.90
13572;DHT22;6857;53.484;10.216;2024-01-30T02:12:35;4.30;99.90
13572;DHT22;6857;53.484;10.216;2024-01-30T02:15:01;4.30;99.90
13572;DHT22;6857;53.484;10.216;2024-01-30T02:17:26;4.20;99.90
13572;DHT22;6857;53.484;10.216;2024-01-30T02:19:52;4.20;99.90
13572;DHT22;6857;53.484;10.216;2024-01-30T02:22:18;4.20;99.90
13572;DHT22;6857;53.484;10.216;2024-01-30T02:24:44;4.30;99.90
13572;DHT22;6857;53.484;10.216;2024-01-30T02:27:10;4.30;99.90
13572;DHT22;6857;53.484;10.216;2024-01-30T02:29:35;4.30;99.90
13572;DHT22;6857;53.484;10.216;2024-01-30T02:32:01;4.30;99.90
13572;DHT22;6857;53.484;10.216;2024-01-30T02:34:26;4.30;99.90
13572;DHT22;6857;53.484;10.216;2024-01-30T02:36:52;4.20;99.90
13572;DHT22;6857;53.484;10.216;2024-01-30T02:39:17;4.30;99.90
13572;DHT22;6857;53.484;10.216;2024-01-30T02:41:43;4.30;99.90
13572;DHT22;6857;53.484;10.216;2024-01-30T02:44:08;4.30;99.90
13572;DHT22;6857;53.484;10.216;2024-01-30T02:46:34;4.30;99.90
13572;DHT22;6857;53.484;10.216;2024-01-30T02:48:59;4.40;99.90
13572;DHT22;6857;53.484;10.216;2024-01-30T02:51:25;4.40;99.90
13572;DHT22;6857;53.484;10.216;2024-01-30T02:53:51;4.40;99.90
13572;DHT22;6857;53.484;10.216;2024-01-30T02:56:16;4.40;99.90
13572;DHT22;6857;53.484;10.216;2024-01-30T02:58:42;4.40;99.90
13572;DHT22;6857;53.484;10.216;2024-01-30T03:01:07;4.50;99.90
13572;DHT22;6857;53.484;10.216;2024-01-30T03:03:33;4.50;99.90
13572;DHT22;6857;53.484;10.216;2024-01-30T03:06:02;4.50;99.90
13572;DHT22;6857;53.484;10.216;2024-01-30T03:08:27;4.50;99.90
13572;DHT22;6857;53.484;10.216;2024-01-30T03:10:53;4.60;99.90
13572;DHT22;6857;53.484;10.216;2024-01-30T03:13:19;4.50;99.90
13572;DHT22;6857;53.484;10.216;2024-01-30T03:15:44;4.50;99.90
13572;DHT22;6857;53.484;10.216;2024-01-30T03:18:10;4.50;99.90
13572;DHT22;6857;53.484;10.216;2024-01-30T03:20:35;4.50;99.90
13572;DHT22;6857;53.484;10.216;2024-01-30T03:23:01;4.50;99.90
13572;DHT22;6857;53.484;10.216;2024-01-30T03:25:26;4.50;99.90
13572;DHT22;6857;53.484;10.216;2024-01-30T03:27:52;4.50;99.90
13572;DHT22;6857;53.484;10.216;2024-01-30T03:30:17;4.50;99.90
13572;DHT22;6857;53.484;10.216;2024-01-30T03:32:43;4.50;99.90
13572;DHT22;6857;53.484;10.216;2024-01-30T03:35:09;4.50;99.90
13572;DHT22;6857;53.484;10.216;2024-01-30T03:37:35;4.60;99.90
13572;DHT22;6857;53.484;10.216;2024-01-30T03:40:02;4.50;99.90
13572;DHT22;6857;53.484;10.216;2024-01-30T03:42:27;4.50;99.90
13572;DHT22;6857;53.484;10.216;2024-01-30T03:44:53;4.50;99.90
13572;DHT22;6857;53.484;10.216;2024-01-30T03:47:20;4.40;99.90
13572;DHT22;6857;53.484;10.216;2024-01-30T03:49:46;4.40;99.90
13572;DHT22;6857;53.484;10.216;2024-01-30T03:52:12;4.40;99.90
13572;DHT22;6857;53.484;10.216;2024-01-30T03:54:46;4.40;99.90
13572;DHT22;6857;53.484;10.216;2024-01-30T03:57:32;4.40;99.90
13572;DHT22;6857;53.484;10.216;2024-01-30T04:00:15;4.30;99.90
13572;DHT22;6857;53.484;10.216;2024-01-30T04:02:44;4.30;99.90
13572;DHT22;6857;53.484;10.216;2024-01-30T04:05:19;4.20;99.90
13572;DHT22;6857;53.484;10.216;2024-01-30T04:07:48;4.20;99.90
13572;DHT22;6857;53.484;10.216;2024-01-30T04:10:19;4.20;99.90
13572;DHT22;6857;53.484;10.216;2024-01-30T04:13:09;4.20;99.90
13572;DHT22;6857;53.484;10.216;2024-01-30T04:15:53;4.30;99.90
13572;DHT22;6857;53.484;10.216;2024-01-30T04:18:49;4.40;99.90
13572;DHT22;6857;53.484;10.216;2024-01-30T04:21:43;4.40;99.90
13572;DHT22;6857;53.484;10.216;2024-01-30T04:24:15;4.50;99.90
13572;DHT22;6857;53.484;10.216;2024-01-30T04:26:57;4.50;99.90
13572;DHT22;6857;53.484;10.216;2024-01-30T04:29:26;4.50;99.90
13572;DHT22;6857;53.484;10.216;2024-01-30T04:31:55;4.50;99.90
13572;DHT22;6857;53.484;10.216;2024-01-30T04:34:58;4.50;99.90
13572;DHT22;6857;53.484;10.216;2024-01-30T04:37:49;4.50;99.90
13572;DHT22;6857;53.484;10.216;2024-01-30T04:40:18;4.50;99.90
13572;DHT22;6857;53.484;10.216;2024-01-30T04:42:44;4.50;99.90
13572;DHT22;6857;53.484;10.216;2024-01-30T04:45:20;4.50;99.90
13572;DHT22;6857;53.484;10.216;2024-01-30T04:47:48;4.50;99.90
13572;DHT22;6857;53.484;10.216;2024-01-30T04:50:14;4.40;99.90
13572;DHT22;6857;53.484;10.216;2024-01-30T04:52:50;4.40;99.90
13572;DHT22;6857;53.484;10.216;2024-01-30T04:55:16;4.40;99.90
13572;DHT22;6857;53.484;10.216;2024-01-30T04:57:45;4.40;99.90
13572;DHT22;6857;53.484;10.216;2024-01-30T05:00:11;4.40;99.90
13572;DHT22;6857;53.484;10.216;2024-01-30T05:02:47;4.40;99.90
13572;DHT22;6857;53.484;10.216;2024-01-30T05:05:28;4.30;99.90
13572;DHT22;6857;53.484;10.216;2024-01-30T05:08:11;4.30;99.90
13572;DHT22;6857;53.484;10.216;2024-01-30T05:10:45;4.30;99.90
13572;DHT22;6857;53.484;10.216;2024-01-30T05:13:15;4.20;99.90
13572;DHT22;6857;53.484;10.216;2024-01-30T05:15:42;4.20;99.90
13572;DHT22;6857;53.484;10.216;2024-01-30T05:18:13;4.20;99.90
13572;DHT22;6857;53.484;10.216;2024-01-30T05:20:45;4.20;99.90
13572;DHT22;6857;53.484;10.216;2024-01-30T05:23:17;4.20;99.90
13572;DHT22;6857;53.484;10.216;2024-01-30T05:25:45;4.20;99.90
13572;DHT22;6857;53.484;10.216;2024-01-30T05:28:17;4.20;99.90
13572;DHT22;6857;53.484;10.216;2024-01-30T05:30:43;4.20;99.90
13572;DHT22;6857;53.484;10.216;2024-01-30T05:33:09;4.20;99.90
13572;DHT22;6857;53.484;10.216;2024-01-30T05:35:38;4.10;99.90
13572;DHT22;6857;53.484;10.216;2024-01-30T05:38:06;4.10;99.90
13572;DHT22;6857;53.484;10.216;2024-01-30T05:40:53;4.10;99.90
13572;DHT22;6857;53.484;10.216;2024-01-30T05:43:32;4.00;99.90
13572;DHT22;6857;53.484;10.216;2024-01-30T05:46:04;4.00;99.90
13572;DHT22;6857;53.484;10.216;2024-01-30T05:48:33;3.90;99.90
13572;DHT22;6857;53.484;10.216;2024-01-30T05:51:03;4.00;99.90
13572;DHT22;6857;53.484;10.216;2024-01-30T05:53:38;4.00;99.90
13572;DHT22;6857;53.484;10.216;2024-01-30T05:56:11;4.00;99.90
13572;DHT22;6857;53.484;10.216;2024-01-30T05:58:37;4.00;99.90
13572;DHT22;6857;53.484;10.216;2024-01-30T06:01:07;4.10;99.90
13572;DHT22;6857;53.484;10.216;2024-01-30T06:03:36;4.10;99.90
13572;DHT22;6857;53.484;10.216;2024-01-30T06:06:09;4.10;99.90
13572;DHT22;6857;53.484;10.216;2024-01-30T06:08:38;4.10;99.90
13572;DHT22;6857;53.484;10.216;2024-01-30T06:11:09;4.10;99.90
13572;DHT22;6857;53.484;10.216;2024-01-30T06:13:38;4.10;99.90
13572;DHT22;6857;53.484;10.216;2024-01-30T06:16:13;4.10;99.90
13572;DHT22;6857;53.484;10.216;2024-01-30T06:19:02;3.90;99.90
13572;DHT22;6857;53.484;10.216;2024-01-30T06:21:27;3.90;99.90
13572;DHT22;6857;53.484;10.216;2024-01-30T06:23:56;3.90;99.90
13572;DHT22;6857;53.484;10.216;2024-01-30T06:26:21;4.00;99.90
13572;DHT22;6857;53.484;10.216;2024-01-30T06:29:23;4.00;99.90
13572;DHT22;6857;53.484;10.216;2024-01-30T06:31:43;4.10;99.90
13572;DHT22;6857;53.484;10.216;2024-01-30T06:34:24;4.30;99.90
13572;DHT22;6857;53.484;10.216;2024-01-30T06:36:55;4.40;99.90
13572;DHT22;6857;53.484;10.216;2024-01-30T06:39:25;4.40;99.90
13572;DHT22;6857;53.484;10.216;2024-01-30T06:41:54;4.50;99.90
13572;DHT22;6857;53.484;10.216;2024-01-30T06:44:26;4.50;99.90
13572;DHT22;6857;53.484;10.216;2024-01-30T06:47:15;4.50;99.90
13572;DHT22;6857;53.484;10.216;2024-01-30T06:49:41;4.40;99.90
13572;DHT22;6857;53.484;10.216;2024-01-30T06:52:09;4.50;99.90
13572;DHT22;6857;53.484;10.216;2024-01-30T06:54:38;4.40;99.90
13572;DHT22;6857;53.484;10.216;2024-01-30T06:57:08;4.40;99.90
13572;DHT22;6857;53.484;10.216;2024-01-30T06:59:37;4.50;99.90
13572;DHT22;6857;53.484;10.216;2024-01-30T07:02:09;4.40;99.90
13572;DHT22;6857;53.484;10.216;2024-01-30T07:04:41;4.40;99.90
13572;DHT22;6857;53.484;10.216;2024-01-30T07:07:10;4.40;99.90
13572;DHT22;6857;53.484;10.216;2024-01-30T07:09:43;4.50;99.90
13572;DHT22;6857;53.484;10.216;2024-01-30T07:12:10;4.50;99.90
13572;DHT22;6857;53.484;10.216;2024-01-30T07:14:36;4.60;99.90
13572;DHT22;6857;53.484;10.216;2024-01-30T07:17:52;4.60;99.90
13572;DHT22;6857;53.484;10.216;2024-01-30T07:20:17;4.60;99.90
13572;DHT22;6857;53.484;10.216;2024-01-30T07:22:45;4.50;99.90
13572;DHT22;6857;53.484;10.216;2024-01-30T07:25:17;4.50;99.90
13572;DHT22;6857;53.484;10.216;2024-01-30T07:27:48;4.50;99.90
13572;DHT22;6857;53.484;10.216;2024-01-30T07:30:26;4.50;99.90
13572;DHT22;6857;53.484;10.216;2024-01-30T07:33:04;4.50;99.90
13572;DHT22;6857;53.484;10.216;2024-01-30T07:35:33;4.60;99.90
13572;DHT22;6857;53.484;10.216;2024-01-30T07:38:07;4.60;99.90
13572;DHT22;6857;53.484;10.216;2024-01-30T07:40:56;4.60;99.90
13572;DHT22;6857;53.484;10.216;2024-01-30T07:43:24;4.70;99.90
13572;DHT22;6857;53.484;10.216;2024-01-30T07:45:50;4.70;99.90
13572;DHT22;6857;53.484;10.216;2024-01-30T07:48:25;4.70;99.90
13572;DHT22;6857;53.484;10.216;2024-01-30T07:50:56;4.70;99.90
13572;DHT22;6857;53.484;10.216;2024-01-30T07:53:22;4.70;99.90
13572;DHT22;6857;53.484;10.216;2024-01-30T07:55:47;4.70;99.90
13572;DHT22;6857;53.484;10.216;2024-01-30T07:58:13;4.60;99.90
13572;DHT22;6857;53.484;10.216;2024-01-30T08:00:39;4.60;99.90
13572;DHT22;6857;53.484;10.216;2024-01-30T08:03:04;4.60;99.90
13572;DHT22;6857;53.484;10.216;2024-01-30T08:05:30;4.70;99.90
13572;DHT22;6857;53.484;10.216;2024-01-30T08:07:56;4.70;99.90
13572;DHT22;6857;53.484;10.216;2024-01-30T08:10:22;4.70;99.90
13572;DHT22;6857;53.484;10.216;2024-01-30T08:12:47;4.80;99.90
13572;DHT22;6857;53.484;10.216;2024-01-30T08:15:13;4.80;99.90
13572;DHT22;6857;53.484;10.216;2024-01-30T08:17:39;4.80;99.90
13572;DHT22;6857;53.484;10.216;2024-01-30T08:20:05;4.80;99.90
13572;DHT22;6857;53.484;10.216;2024-01-30T08:22:31;4.80;99.90
13572;DHT22;6857;53.484;10.216;2024-01-30T08:24:56;4.90;99.90
13572;DHT22;6857;53.484;10.216;2024-01-30T08:27:22;4.90;99.90
13572;DHT22;6857;53.484;10.216;2024-01-30T08:29:47;4.90;99.90
13572;DHT22;6857;53.484;10.216;2024-01-30T08:32:13;5.00;99.90
13572;DHT22;6857;53.484;10.216;2024-01-30T08:34:39;5.10;99.90
13572;DHT22;6857;53.484;10.216;2024-01-30T08:37:04;5.20;99.90
13572;DHT22;6857;53.484;10.216;2024-01-30T08:39:30;5.20;99.90
13572;DHT22;6857;53.484;10.216;2024-01-30T08:41:56;5.30;99.90
13572;DHT22;6857;53.484;10.216;2024-01-30T08:44:21;5.30;99.90
13572;DHT22;6857;53.484;10.216;2024-01-30T08:46:47;5.40;99.90
13572;DHT22;6857;53.484;10.216;2024-01-30T08:49:13;5.40;99.90
13572;DHT22;6857;53.484;10.216;2024-01-30T08:51:39;5.50;99.90
13572;DHT22;6857;53.484;10.216;2024-01-30T08:54:05;5.50;99.90
13572;DHT22;6857;53.484;10.216;2024-01-30T08:56:30;5.50;99.90
13572;DHT22;6857;53.484;10.216;2024-01-30T08:58:56;5.50;99.90
13572;DHT22;6857;53.484;10.216;2024-01-30T09:01:22;5.50;99.90
13572;DHT22;6857;53.484;10.216;2024-01-30T09:03:47;5.60;99.90
13572;DHT22;6857;53.484;10.216;2024-01-30T09:06:13;5.70;99.90
13572;DHT22;6857;53.484;10.216;2024-01-30T09:08:39;5.70;99.90
13572;DHT22;6857;53.484;10.216;2024-01-30T09:11:14;5.80;99.90
13572;DHT22;6857;53.484;10.216;2024-01-30T09:13:40;5.80;99.90
13572;DHT22;6857;53.484;10.216;2024-01-30T09:16:06;5.90;99.90
13572;DHT22;6857;53.484;10.216;2024-01-30T09:18:32;5.90;99.90
13572;DHT22;6857;53.484;10.216;2024-01-30T09:20:58;5.90;99.90
13572;DHT22;6857;53.484;10.216;2024-01-30T09:23:23;5.90;99.90
13572;DHT22;6857;53.484;10.216;2024-01-30T09:25:49;6.00;99.90
13572;DHT22;6857;53.484;10.216;2024-01-30T09:28:16;6.00;99.90
13572;DHT22;6857;53.484;10.216;2024-01-30T09:30:42;6.00;99.90
13572;DHT22;6857;53.484;10.216;2024-01-30T09:33:08;6.00;99.90
13572;DHT22;6857;53.484;10.216;2024-01-30T09:35:33;6.00;99.90
13572;DHT22;6857;53.484;10.216;2024-01-30T09:37:59;6.10;99.90
13572;DHT22;6857;53.484;10.216;2024-01-30T09:40:25;6.10;99.90
13572;DHT22;6857;53.484;10.216;2024-01-30T09:42:51;6.20;99.90
13572;DHT22;6857;53.484;10.216;2024-01-30T09:45:23;6.30;99.90
13572;DHT22;6857;53.484;10.216;2024-01-30T09:47:50;6.30;99.90
13572;DHT22;6857;53.484;10.216;2024-01-30T09:50:16;6.30;99.90
13572;DHT22;6857;53.484;10.216;2024-01-30T09:52:46;6.30;99.90
13572;DHT22;6857;53.484;10.216;2024-01-30T09:55:12;6.40;99.90
13572;DHT22;6857;53.484;10.216;2024-01-30T09:57:38;6.40;99.90
13572;DHT22;6857;53.484;10.216;2024-01-30T10:00:04;6.50;99.90
13572;DHT22;6857;53.484;10.216;2024-01-30T10:02:33;6.60;99.90
13572;DHT22;6857;53.484;10.216;2024-01-30T10:04:59;6.60;99.90
13572;DHT22;6857;53.484;10.216;2024-01-30T10:07:25;6.60;99.90
13572;DHT22;6857;53.484;10.216;2024-01-30T10:09:51;6.50;99.90
13572;DHT22;6857;53.484;10.216;2024-01-30T10:12:18;6.60;99.90
13572;DHT22;6857;53.484;10.216;2024-01-30T10:14:44;6.70;99.90
13572;DHT22;6857;53.484;10.216;2024-01-30T10:17:10;6.70;99.90
13572;DHT22;6857;53.484;10.216;2024-01-30T10:19:40;6.70;99.90
13572;DHT22;6857;53.484;10.216;2024-01-30T10:22:06;6.80;99.90
13572;DHT22;6857;53.484;10.216;2024-01-30T10:24:33;6.90;99.90
13572;DHT22;6857;53.484;10.216;2024-01-30T10:26:59;7.00;99.90
13572;DHT22;6857;53.484;10.216;2024-01-30T10:29:25;7.00;99.90
13572;DHT22;6857;53.484;10.216;2024-01-30T10:32:05;7.10;99.90
13572;DHT22;6857;53.484;10.216;2024-01-30T10:34:31;7.10;99.90
13572;DHT22;6857;53.484;10.216;2024-01-30T10:37:07;7.20;99.90
13572;DHT22;6857;53.484;10.216;2024-01-30T10:39:39;7.30;99.90
13572;DHT22;6857;53.484;10.216;2024-01-30T10:42:05;7.30;99.90
13572;DHT22;6857;53.484;10.216;2024-01-30T10:44:51;7.30;99.90
13572;DHT22;6857;53.484;10.216;2024-01-30T10:47:29;7.30;99.90
13572;DHT22;6857;53.484;10.216;2024-01-30T10:49:56;7.40;99.90
13572;DHT22;6857;53.484;10.216;2024-01-30T10:52:23;7.40;99.90
13572;DHT22;6857;53.484;10.216;2024-01-30T10:54:51;7.40;99.90
13572;DHT22;6857;53.484;10.216;2024-01-30T10:57:17;7.60;99.90
13572;DHT22;6857;53.484;10.216;2024-01-30T10:59:43;7.80;99.90
13572;DHT22;6857;53.484;10.216;2024-01-30T11:02:10;7.90;99.90
13572;DHT22;6857;53.484;10.216;2024-01-30T11:04:37;7.90;99.90
13572;DHT22;6857;53.484;10.216;2024-01-30T11:07:13;8.00;99.90
13572;DHT22;6857;53.484;10.216;2024-01-30T11:09:39;8.00;99.90
13572;DHT22;6857;53.484;10.216;2024-01-30T11:12:04;8.10;99.90
13572;DHT22;6857;53.484;10.216;2024-01-30T11:14:30;8.20;99.90
13572;DHT22;6857;53.484;10.216;2024-01-30T11:16:59;8.20;99.90
13572;DHT22;6857;53.484;10.216;2024-01-30T11:19:31;8.20;99.90
13572;DHT22;6857;53.484;10.216;2024-01-30T11:21:57;8.30;99.90
13572;DHT22;6857;53.484;10.216;2024-01-30T11:24:25;8.30;99.90
13572;DHT22;6857;53.484;10.216;2024-01-30T11:26:59;8.40;99.90
13572;DHT22;6857;53.484;10.216;2024-01-30T11:29:28;8.40;99.90
13572;DHT22;6857;53.484;10.216;2024-01-30T11:31:55;8.40;99.90
13572;DHT22;6857;53.484;10.216;2024-01-30T11:34:21;8.50;99.90
13572;DHT22;6857;53.484;10.216;2024-01-30T11:36:59;8.50;99.90
13572;DHT22;6857;53.484;10.216;2024-01-30T11:39:29;8.50;99.90
13572;DHT22;6857;53.484;10.216;2024-01-30T11:41:55;8.40;99.90
13572;DHT22;6857;53.484;10.216;2024-01-30T11:44:22;8.50;99.90
13572;DHT22;6857;53.484;10.216;2024-01-30T11:46:51;8.70;99.90
13572;DHT22;6857;53.484;10.216;2024-01-30T11:49:17;8.70;99.90
13572;DHT22;6857;53.484;10.216;2024-01-30T11:51:45;8.80;99.90
13572;DHT22;6857;53.484;10.216;2024-01-30T11:54:10;8.90;99.90
13572;DHT22;6857;53.484;10.216;2024-01-30T11:56:37;8.90;99.90
13572;DHT22;6857;53.484;10.216;2024-01-30T11:59:03;9.00;99.90
13572;DHT22;6857;53.484;10.216;2024-01-30T12:01:29;9.10;99.90
13572;DHT22;6857;53.484;10.216;2024-01-30T12:03:54;9.00;99.90
13572;DHT22;6857;53.484;10.216;2024-01-30T12:06:22;9.00;99.90
13572;DHT22;6857;53.484;10.216;2024-01-30T12:09:01;9.10;99.90
13572;DHT22;6857;53.484;10.216;2024-01-30T12:11:29;9.10;99.90
13572;DHT22;6857;53.484;10.216;2024-01-30T12:13:55;9.20;99.90
13572;DHT22;6857;53.484;10.216;2024-01-30T12:16:21;9.20;99.90
13572;DHT22;6857;53.484;10.216;2024-01-30T12:18:47;9.20;99.90
13572;DHT22;6857;53.484;10.216;2024-01-30T12:21:16;9.20;99.90
13572;DHT22;6857;53.484;10.216;2024-01-30T12:23:42;9.20;99.90
13572;DHT22;6857;53.484;10.216;2024-01-30T12:26:08;9.20;99.90
13572;DHT22;6857;53.484;10.216;2024-01-30T12:28:34;9.20;99.90
13572;DHT22;6857;53.484;10.216;2024-01-30T12:31:03;9.20;99.90
13572;DHT22;6857;53.484;10.216;2024-01-30T12:33:29;9.30;99.90
13572;DHT22;6857;53.484;10.216;2024-01-30T12:35:56;9.30;99.90
13572;DHT22;6857;53.484;10.216;2024-01-30T12:38:22;9.30;99.90
13572;DHT22;6857;53.484;10.216;2024-01-30T12:40:49;9.30;99.90
13572;DHT22;6857;53.484;10.216;2024-01-30T12:43:15;9.20;99.90
13572;DHT22;6857;53.484;10.216;2024-01-30T12:45:41;9.30;99.90
13572;DHT22;6857;53.484;10.216;2024-01-30T12:48:08;9.40;99.90
13572;DHT22;6857;53.484;10.216;2024-01-30T12:50:34;9.50;99.90
13572;DHT22;6857;53.484;10.216;2024-01-30T12:52:59;9.60;99.90
13572;DHT22;6857;53.484;10.216;2024-01-30T12:55:25;9.60;99.90
13572;DHT22;6857;53.484;10.216;2024-01-30T12:57:54;9.60;99.90
13572;DHT22;6857;53.484;10.216;2024-01-30T13:00:20;9.60;99.90
13572;DHT22;6857;53.484;10.216;2024-01-30T13:02:45;9.60;99.90
13572;DHT22;6857;53.484;10.216;2024-01-30T13:05:12;9.60;99.90
13572;DHT22;6857;53.484;10.216;2024-01-30T13:07:38;9.60;99.90
13572;DHT22;6857;53.484;10.216;2024-01-30T13:10:03;9.60;99.90
13572;DHT22;6857;53.484;10.216;2024-01-30T13:12:30;9.70;99.90
13572;DHT22;6857;53.484;10.216;2024-01-30T13:14:57;9.70;99.90
13572;DHT22;6857;53.484;10.216;2024-01-30T13:17:23;9.70;99.90
13572;DHT22;6857;53.484;10.216;2024-01-30T13:19:48;9.70;99.90
13572;DHT22;6857;53.484;10.216;2024-01-30T13:22:15;9.80;99.90
13572;DHT22;6857;53.484;10.216;2024-01-30T13:24:41;9.80;99.90
13572;DHT22;6857;53.484;10.216;2024-01-30T13:27:07;9.80;99.90
13572;DHT22;6857;53.484;10.216;2024-01-30T13:29:32;9.90;99.90
13572;DHT22;6857;53.484;10.216;2024-01-30T13:31:58;9.90;99.90
13572;DHT22;6857;53.484;10.216;2024-01-30T13:34:24;9.90;99.90
13572;DHT22;6857;53.484;10.216;2024-01-30T13:36:50;10.00;99.90
13572;DHT22;6857;53.484;10.216;2024-01-30T13:39:15;10.10;99.90
13572;DHT22;6857;53.484;10.216;2024-01-30T13:41:42;10.10;99.90
13572;DHT22;6857;53.484;10.216;2024-01-30T13:44:08;10.20;99.90
13572;DHT22;6857;53.484;10.216;2024-01-30T13:46:34;10.20;99.90
13572;DHT22;6857;53.484;10.216;2024-01-30T13:49:00;10.20;99.90
13572;DHT22;6857;53.484;10.216;2024-01-30T13:51:25;10.20;99.90
13572;DHT22;6857;53.484;10.216;2024-01-30T13:53:51;10.20;99.90
13572;DHT22;6857;53.484;10.216;2024-01-30T13:56:17;10.20;99.90
13572;DHT22;6857;53.484;10.216;2024-01-30T13:58:42;10.20;99.90
13572;DHT22;6857;53.484;10.216;2024-01-30T14:01:08;10.20;99.90
13572;DHT22;6857;53.484;10.216;2024-01-30T14:03:35;10.10;99.90
13572;DHT22;6857;53.484;10.216;2024-01-30T14:06:00;10.10;99.90
13572;DHT22;6857;53.484;10.216;2024-01-30T14:08:26;10.10;99.90
13572;DHT22;6857;53.484;10.216;2024-01-30T14:10:54;10.00;99.90
13572;DHT22;6857;53.484;10.216;2024-01-30T14:13:20;10.00;99.90
13572;DHT22;6857;53.484;10.216;2024-01-30T14:15:46;10.00;99.90
13572;DHT22;6857;53.484;10.216;2024-01-30T14:18:11;10.00;99.90
13572;DHT22;6857;53.484;10.216;2024-01-30T14:20:37;10.00;99.90
13572;DHT22;6857;53.484;10.216;2024-01-30T14:23:02;10.00;99.90
13572;DHT22;6857;53.484;10.216;2024-01-30T14:25:28;10.00;99.90
13572;DHT22;6857;53.484;10.216;2024-01-30T14:27:53;9.90;99.90
13572;DHT22;6857;53.484;10.216;2024-01-30T14:30:19;9.90;99.90
13572;DHT22;6857;53.484;10.216;2024-01-30T14:32:45;9.90;99.90
13572;DHT22;6857;53.484;10.216;2024-01-30T14:35:10;9.90;99.90
13572;DHT22;6857;53.484;10.216;2024-01-30T14:37:37;9.90;99.90
13572;DHT22;6857;53.484;10.216;2024-01-30T14:40:03;9.90;99.90
13572;DHT22;6857;53.484;10.216;2024-01-30T14:42:29;9.80;99.90
13572;DHT22;6857;53.484;10.216;2024-01-30T14:44:57;9.80;99.90
13572;DHT22;6857;53.484;10.216;2024-01-30T14:47:22;9.80;99.90
13572;DHT22;6857;53.484;10.216;2024-01-30T14:49:48;9.80;99.90
13572;DHT22;6857;53.484;10.216;2024-01-30T14:52:14;9.80;99.90
13572;DHT22;6857;53.484;10.216;2024-01-30T14:54:40;9.80;99.90
13572;DHT22;6857;53.484;10.216;2024-01-30T14:57:06;9.80;99.90
13572;DHT22;6857;53.484;10.216;2024-01-30T14:59:31;9.80;99.90
13572;DHT22;6857;53.484;10.216;2024-01-30T15:01:57;9.80;99.90
13572;DHT22;6857;53.484;10.216;2024-01-30T15:04:23;9.80;99.90
13572;DHT22;6857;53.484;10.216;2024-01-30T15:06:49;9.80;99.90
13572;DHT22;6857;53.484;10.216;2024-01-30T15:09:15;9.80;99.90
13572;DHT22;6857;53.484;10.216;2024-01-30T15:11:44;9.80;99.90
13572;DHT22;6857;53.484;10.216;2024-01-30T15:14:10;9.80;99.90
13572;DHT22;6857;53.484;10.216;2024-01-30T15:16:36;9.80;99.90
13572;DHT22;6857;53.484;10.216;2024-01-30T15:19:02;9.90;99.90
13572;DHT22;6857;53.484;10.216;2024-01-30T15:21:29;9.90;99.90
13572;DHT22;6857;53.484;10.216;2024-01-30T15:23:55;10.00;99.90
13572;DHT22;6857;53.484;10.216;2024-01-30T15:26:20;10.00;99.90
13572;DHT22;6857;53.484;10.216;2024-01-30T15:28:46;10.00;99.90
13572;DHT22;6857;53.484;10.216;2024-01-30T15:31:11;10.10;99.90
13572;DHT22;6857;53.484;10.216;2024-01-30T15:33:37;10.10;99.90
13572;DHT22;6857;53.484;10.216;2024-01-30T15:36:03;10.10;99.90
13572;DHT22;6857;53.484;10.216;2024-01-30T15:38:29;10.10;99.90
13572;DHT22;6857;53.484;10.216;2024-01-30T15:40:55;10.10;99.90
13572;DHT22;6857;53.484;10.216;2024-01-30T15:43:21;10.20;99.90
13572;DHT22;6857;53.484;10.216;2024-01-30T15:45:48;10.20;99.90
13572;DHT22;6857;53.484;10.216;2024-01-30T15:48:13;10.30;99.90
13572;DHT22;6857;53.484;10.216;2024-01-30T15:50:39;10.30;99.90